Time;durP1;ratioP1;P1;durP2;ratioP2;P2;SDS_P1;SDS_P2;PMS_P1;PMS_P2;Temp;Humidity;BMP_temperature;BMP_pressure;BME280_temperature;BME280_humidity;BME280_pressure;Samples;Min_cycle;Max_cycle;Signal;HPM_P1;HPM_P2
2021/01/15 00:02:03;;;;;;;29.10;17.17;;;;;;;1.83;100.00;101304.94;5226539;28;20021;-80
2021/01/15 00:04:33;;;;;;;28.30;16.35;;;;;;;1.70;100.00;101300.47;5224622;28;20517;-80
2021/01/15 00:07:04;;;;;;;29.95;16.13;;;;;;;1.71;100.00;101301.34;5225489;28;20569;-80
2021/01/15 00:09:35;;;;;;;29.00;15.75;;;;;;;1.75;100.00;101303.13;5226814;28;20074;-80
2021/01/15 00:12:05;;;;;;;30.60;16.83;;;;;;;1.85;100.00;101301.50;5209678;28;20090;-80
2021/01/15 00:14:36;;;;;;;28.92;16.58;;;;;;;1.84;100.00;101306.66;5227138;28;20029;-80
2021/01/15 00:17:06;;;;;;;28.70;15.80;;;;;;;1.79;100.00;101303.19;5226553;28;20061;-80
2021/01/15 00:19:36;;;;;;;25.80;16.13;;;;;;;1.78;100.00;101299.72;5226264;28;20086;-80
2021/01/15 00:22:06;;;;;;;31.40;16.30;;;;;;;1.72;100.00;101298.78;5225889;28;20033;-80
2021/01/15 00:24:37;;;;;;;28.58;16.25;;;;;;;1.76;100.00;101303.13;5226250;28;20040;-80
2021/01/15 00:27:07;;;;;;;27.13;16.75;;;;;;;1.53;100.00;101302.00;5226864;28;20035;-80
2021/01/15 00:29:37;;;;;;;28.38;16.63;;;;;;;1.76;100.00;101305.69;5225798;28;20119;-80
2021/01/15 00:32:07;;;;;;;30.08;16.20;;;;;;;1.81;100.00;101304.91;5226215;28;20100;-80
2021/01/15 00:34:39;;;;;;;28.35;16.23;;;;;;;1.78;100.00;101302.28;5225262;28;20028;-80
2021/01/15 00:37:10;;;;;;;31.23;15.90;;;;;;;1.76;100.00;101305.69;5208195;28;20107;-80
2021/01/15 00:39:40;;;;;;;25.40;15.48;;;;;;;1.89;100.00;101302.41;5225439;28;20511;-80
2021/01/15 00:42:11;;;;;;;26.38;15.32;;;;;;;1.81;100.00;101304.06;5225905;28;20021;-80
2021/01/15 00:44:45;;;;;;;33.38;15.85;;;;;;;1.93;100.00;101304.16;5226052;28;20033;-80
2021/01/15 00:47:15;;;;;;;24.52;15.25;;;;;;;1.77;100.00;101308.28;5225878;28;20491;-80
2021/01/15 00:49:45;;;;;;;30.50;16.30;;;;;;;1.79;100.00;101316.06;5226340;28;20032;-80
2021/01/15 00:52:16;;;;;;;28.92;15.65;;;;;;;1.82;100.00;101309.19;5207380;28;20017;-80
2021/01/15 00:54:47;;;;;;;29.17;16.15;;;;;;;1.81;100.00;101307.47;5225137;28;20040;-80
2021/01/15 00:57:17;;;;;;;25.63;15.55;;;;;;;1.57;100.00;101303.75;5225965;28;20025;-80
2021/01/15 00:59:47;;;;;;;26.42;15.13;;;;;;;1.53;100.00;101299.41;5225969;28;20020;-80
2021/01/15 01:02:18;;;;;;;25.55;15.85;;;;;;;1.65;100.00;101307.28;5207749;28;20078;-80
2021/01/15 01:04:49;;;;;;;24.13;15.27;;;;;;;1.60;100.00;101303.78;5224684;28;20036;-80
2021/01/15 01:07:19;;;;;;;26.05;16.00;;;;;;;1.57;100.00;101308.06;5225266;28;20023;-80
2021/01/15 01:09:49;;;;;;;27.05;16.25;;;;;;;1.62;100.00;101303.81;5223058;28;20104;-80
2021/01/15 01:12:20;;;;;;;26.25;16.00;;;;;;;1.68;100.00;101311.59;5237971;28;20044;-80
2021/01/15 01:14:50;;;;;;;25.05;15.95;;;;;;;1.69;100.00;101314.22;5231013;28;20032;-80
2021/01/15 01:17:20;;;;;;;23.00;14.75;;;;;;;1.70;100.00;101310.78;5222235;28;20025;-80
2021/01/15 01:19:50;;;;;;;25.48;14.68;;;;;;;1.63;100.00;101316.72;5223549;28;20669;-80
2021/01/15 01:22:21;;;;;;;26.70;16.30;;;;;;;1.70;100.00;101315.94;5223942;28;20567;-80
2021/01/15 01:24:51;;;;;;;26.88;15.00;;;;;;;1.72;100.00;101309.09;5222738;28;20083;-80
2021/01/15 01:27:21;;;;;;;27.48;15.48;;;;;;;1.67;100.00;101310.75;5223462;28;20035;-80
2021/01/15 01:29:51;;;;;;;26.88;15.63;;;;;;;1.71;100.00;101322.81;5223568;28;20025;-80
2021/01/15 01:32:22;;;;;;;27.15;15.63;;;;;;;1.77;100.00;101325.44;5223801;28;20021;-80
2021/01/15 01:34:52;;;;;;;27.50;15.60;;;;;;;1.75;100.00;101323.72;5221431;28;20079;-80
2021/01/15 01:37:22;;;;;;;28.65;15.95;;;;;;;1.77;100.00;101328.03;5222617;28;20043;-80
2021/01/15 01:39:53;;;;;;;26.27;15.18;;;;;;;1.65;100.00;101325.31;5223159;28;20024;-80
2021/01/15 01:42:23;;;;;;;24.92;14.23;;;;;;;1.61;100.00;101330.41;5223492;28;20031;-80
2021/01/15 01:44:53;;;;;;;27.92;15.32;;;;;;;1.60;100.00;101324.38;5223060;28;20033;-80
2021/01/15 01:47:24;;;;;;;30.60;16.40;;;;;;;1.57;100.00;101324.34;5222423;28;20435;-80
2021/01/15 01:49:54;;;;;;;23.50;15.15;;;;;;;1.48;100.00;101334.56;5223313;28;20029;-80
2021/01/15 01:52:24;;;;;;;25.60;14.93;;;;;;;1.57;100.00;101334.66;5223109;28;20082;-80
2021/01/15 01:54:55;;;;;;;25.02;14.93;;;;;;;1.56;100.00;101338.06;5222695;28;20574;-80
2021/01/15 01:57:25;;;;;;;25.30;15.25;;;;;;;1.48;100.00;101338.81;5221928;28;20032;-80
2021/01/15 01:59:55;;;;;;;26.38;15.23;;;;;;;1.59;100.00;101345.84;5222455;28;20029;-80
2021/01/15 02:02:27;;;;;;;25.83;14.02;;;;;;;1.61;100.00;101341.56;5223063;28;20172;-80
2021/01/15 02:04:57;;;;;;;23.13;14.48;;;;;;;1.59;100.00;101345.84;5222529;28;20094;-80
2021/01/15 02:07:27;;;;;;;25.08;14.38;;;;;;;1.58;100.00;101344.09;5222055;28;20021;-80
2021/01/15 02:10:14;;;;;;;26.60;14.90;;;;;;;1.62;100.00;101345.03;5222743;28;20411;-80
2021/01/15 02:12:52;;;;;;;22.83;13.57;;;;;;;1.55;100.00;101340.66;5222637;28;20028;-80
2021/01/15 02:15:38;;;;;;;21.13;13.70;;;;;;;1.56;100.00;101348.38;5222386;28;20112;-80
2021/01/15 02:18:33;;;;;;;;;;;;;;;1.52;100.00;101346.63;5223224;28;20627;-80
2021/01/15 02:21:52;;;;;;;25.40;13.05;;;;;;;1.61;100.00;101353.59;5222911;28;19991;-80
2021/01/15 02:24:35;;;;;;;21.08;12.70;;;;;;;1.69;100.00;101354.53;5220089;28;20021;-80
2021/01/15 02:27:43;;;;;;;21.45;12.90;;;;;;;1.57;100.00;101355.25;5221403;28;20029;-80
2021/01/15 02:30:40;;;;;;;23.70;12.98;;;;;;;1.60;100.00;101357.88;5222258;28;20117;-80
2021/01/15 02:33:41;;;;;;;22.73;13.25;;;;;;;1.57;100.00;101355.25;5222158;28;20025;-80
2021/01/15 02:36:32;;;;;;;22.55;12.73;;;;;;;1.54;100.00;101364.69;5221860;28;20475;-81
2021/01/15 02:39:21;;;;;;;23.02;12.35;;;;;;;1.62;100.00;101366.50;5220452;28;20017;-80
2021/01/15 02:41:54;;;;;;;24.20;12.40;;;;;;;1.51;100.00;101370.63;5222240;28;20135;-80
2021/01/15 02:44:26;;;;;;;27.15;13.02;;;;;;;1.60;100.00;101368.16;5229350;28;20024;-80
2021/01/15 02:47:00;;;;;;;22.30;12.98;;;;;;;1.68;100.00;101379.47;5227896;28;20017;-81
2021/01/15 02:49:30;;;;;;;22.25;12.57;;;;;;;1.44;100.00;101381.69;5229087;28;20115;-81
2021/01/15 02:52:05;;;;;;;21.48;12.20;;;;;;;1.52;100.00;101376.63;5228647;28;20480;-81
2021/01/15 02:54:35;;;;;;;19.93;11.77;;;;;;;1.49;100.00;101385.22;5228459;28;20060;-80
2021/01/15 02:57:05;;;;;;;22.80;12.20;;;;;;;1.41;100.00;101380.81;5228509;28;20036;-81
2021/01/15 02:59:36;;;;;;;20.13;11.88;;;;;;;1.49;100.00;101382.63;5228765;28;20025;-81
2021/01/15 03:02:34;;;;;;;18.95;10.73;;;;;;;1.45;100.00;101386.03;5227778;28;20044;-81
2021/01/15 03:05:19;;;;;;;22.25;11.57;;;;;;;1.48;100.00;101388.63;5227703;28;20033;-80
2021/01/15 03:07:51;;;;;;;23.07;11.57;;;;;;;1.43;100.00;101379.94;5225250;28;20085;-82
2021/01/15 03:10:25;;;;;;;21.65;12.18;;;;;;;1.49;100.00;101385.22;5226564;28;20263;-80
2021/01/15 03:12:57;;;;;;;22.63;12.40;;;;;;;1.41;100.00;101394.53;5229631;28;20507;-80
2021/01/15 03:15:31;;;;;;;20.88;11.95;;;;;;;1.47;100.00;101393.75;5227857;28;20538;-81
2021/01/15 03:18:02;;;;;;;22.23;12.52;;;;;;;1.46;100.00;101398.06;5225173;28;20029;-80
2021/01/15 03:20:33;;;;;;;22.80;12.65;;;;;;;1.36;100.00;101396.19;5221814;28;20502;-80
2021/01/15 03:23:03;;;;;;;21.33;12.48;;;;;;;1.45;100.00;101400.59;5222200;28;20021;-80
2021/01/15 03:25:33;;;;;;;22.10;12.50;;;;;;;1.43;100.00;101397.97;5221381;28;20048;-80
2021/01/15 03:28:04;;;;;;;21.45;12.40;;;;;;;1.31;100.00;101397.84;5222982;28;20025;-80
2021/01/15 03:30:34;;;;;;;20.15;12.30;;;;;;;1.45;100.00;101401.47;5203880;28;20808;-80
2021/01/15 03:33:05;;;;;;;21.15;12.38;;;;;;;1.31;100.00;101402.97;5221667;28;20033;-80
2021/01/15 03:35:35;;;;;;;22.52;12.88;;;;;;;1.33;100.00;101401.28;5224052;28;20029;-80
2021/01/15 03:38:08;;;;;;;21.38;13.07;;;;;;;1.33;100.00;101403.84;5220858;28;20021;-80
2021/01/15 03:40:40;;;;;;;22.65;12.00;;;;;;;1.29;100.00;101407.25;5221169;28;20111;-80
2021/01/15 03:43:16;;;;;;;23.05;12.25;;;;;;;1.30;100.00;101411.53;5203533;28;20029;-80
2021/01/15 03:45:50;;;;;;;19.92;11.90;;;;;;;1.27;100.00;101410.63;5221243;28;20032;-80
2021/01/15 03:48:21;;;;;;;19.27;11.70;;;;;;;1.26;100.00;101407.16;5221180;28;20031;-81
2021/01/15 03:50:51;;;;;;;22.70;12.68;;;;;;;1.35;100.00;101409.00;5221714;28;20044;-80
2021/01/15 03:53:22;;;;;;;21.85;12.57;;;;;;;1.34;100.00;101412.44;5220417;28;20550;-80
2021/01/15 03:55:52;;;;;;;22.17;11.55;;;;;;;1.45;100.00;101416.03;5221362;28;20560;-80
2021/01/15 03:58:22;;;;;;;20.15;11.73;;;;;;;1.34;100.00;101413.31;5207565;28;20048;-80
2021/01/15 04:00:52;;;;;;;21.92;12.57;;;;;;;1.39;100.00;101414.25;5225546;28;20108;-80
2021/01/15 04:03:23;;;;;;;20.63;11.38;;;;;;;1.35;100.00;101415.03;5206733;28;20506;-80
2021/01/15 04:05:53;;;;;;;18.48;11.15;;;;;;;1.33;100.00;101421.88;5224849;28;20143;-80
2021/01/15 04:08:23;;;;;;;23.45;12.27;;;;;;;1.22;100.00;101418.28;5225060;28;20033;-80
2021/01/15 04:10:54;;;;;;;20.15;12.93;;;;;;;1.27;100.00;101420.91;5224950;28;20053;-80
2021/01/15 04:13:24;;;;;;;21.20;12.27;;;;;;;1.12;100.00;101420.69;5224805;28;20094;-80
2021/01/15 04:15:54;;;;;;;19.67;11.88;;;;;;;1.32;100.00;101420.16;5225110;28;20033;-80
2021/01/15 04:18:24;;;;;;;21.23;11.80;;;;;;;1.13;100.00;101419.84;5223634;28;20056;-80
2021/01/15 04:20:55;;;;;;;25.15;12.27;;;;;;;1.20;100.00;101425.09;5224569;28;20035;-80
2021/01/15 04:23:25;;;;;;;21.15;11.75;;;;;;;1.24;100.00;101426.88;5224306;28;20021;-80
2021/01/15 04:25:56;;;;;;;22.42;12.38;;;;;;;1.13;100.00;101417.25;5225178;28;20426;-80
2021/01/15 04:28:26;;;;;;;26.55;13.25;;;;;;;1.16;100.00;101425.03;5224015;28;20043;-80
2021/01/15 04:30:56;;;;;;;23.17;12.48;;;;;;;1.14;100.00;101425.03;5202100;28;20124;-80
2021/01/15 04:33:27;;;;;;;25.48;13.30;;;;;;;1.30;100.00;101421.84;5211096;28;20044;-80
2021/01/15 04:35:57;;;;;;;27.55;12.93;;;;;;;1.19;100.00;101423.38;5222924;28;20028;-80
2021/01/15 04:38:27;;;;;;;22.45;13.07;;;;;;;1.13;100.00;101422.41;5224250;28;20467;-80
2021/01/15 04:40:58;;;;;;;25.55;13.45;;;;;;;1.16;100.00;101431.06;5223528;28;20036;-80
2021/01/15 04:43:30;;;;;;;22.48;12.57;;;;;;;1.21;100.00;101426.84;5223523;28;20032;-80
2021/01/15 04:46:03;;;;;;;21.42;13.52;;;;;;;1.27;100.00;101431.22;5223750;28;20021;-80
2021/01/15 04:48:34;;;;;;;17.42;11.10;;;;;;;1.18;100.00;101434.50;5223522;28;20100;-80
2021/01/15 04:51:14;;;;;;;22.65;13.10;;;;;;;1.10;100.00;101430.94;5223467;28;20040;-80
2021/01/15 04:54:04;;;;;;;23.40;12.02;;;;;;;1.20;100.00;101427.69;5221778;28;20024;-80
2021/01/15 04:56:47;;;;;;;22.25;11.90;;;;;;;1.14;100.00;101425.03;5220630;28;20017;-80
2021/01/15 04:59:18;;;;;;;21.23;12.02;;;;;;;1.29;100.00;101435.56;5206028;28;20428;-83
2021/01/15 05:01:49;;;;;;;19.23;11.65;;;;;;;1.29;100.00;101438.13;5223750;28;20033;-83
2021/01/15 05:04:19;;;;;;;22.55;11.98;;;;;;;1.20;100.00;101440.56;5222512;28;20037;-83
2021/01/15 05:06:51;;;;;;;21.63;11.82;;;;;;;1.10;100.00;101443.81;5224187;28;20021;-80
2021/01/15 05:09:25;;;;;;;20.13;11.48;;;;;;;1.23;100.00;101438.03;5223709;28;20040;-80
2021/01/15 05:12:08;;;;;;;22.35;12.48;;;;;;;1.09;100.00;101436.94;5206389;28;20020;-80
2021/01/15 05:14:41;;;;;;;23.92;12.05;;;;;;;1.36;100.00;101436.50;5224008;28;20490;-80
2021/01/15 05:17:12;;;;;;;18.95;11.23;;;;;;;1.28;100.00;101444.13;5224131;28;20547;-80
2021/01/15 05:19:43;;;;;;;21.65;12.75;;;;;;;1.14;100.00;101450.75;5224002;28;20162;-81
2021/01/15 05:22:13;;;;;;;22.67;12.05;;;;;;;1.27;100.00;101455.22;5223762;28;20040;-80
2021/01/15 05:24:44;;;;;;;19.60;11.40;;;;;;;1.37;100.00;101451.97;5223462;28;20025;-80
2021/01/15 05:30:13;;;;;;;20.73;12.27;;;;;;;1.33;100.00;101452.78;5224120;28;20029;-80
2021/01/15 05:32:44;;;;;;;19.98;11.68;;;;;;;1.30;100.00;101447.59;5225141;28;20033;-80
2021/01/15 05:35:15;;;;;;;20.75;11.35;;;;;;;1.33;100.00;101452.78;5223265;28;20400;-80
2021/01/15 05:37:57;;;;;;;21.13;12.05;;;;;;;1.36;100.00;101452.81;5223395;28;20457;-80
2021/01/15 05:40:35;;;;;;;20.50;12.68;;;;;;;1.42;100.00;101457.19;5219258;28;20057;-80
2021/01/15 05:43:07;;;;;;;23.13;12.43;;;;;;;1.37;100.00;101459.69;5223512;28;20379;-80
2021/01/15 05:45:37;;;;;;;23.58;12.18;;;;;;;1.39;100.00;101452.00;5223959;28;20483;-81
2021/01/15 05:48:07;;;;;;;20.23;12.20;;;;;;;1.28;100.00;101457.00;5223374;28;20075;-80
2021/01/15 05:50:39;;;;;;;22.02;12.50;;;;;;;1.34;100.00;101459.66;5223148;28;20040;-80
2021/01/15 05:53:10;;;;;;;20.30;12.50;;;;;;;1.35;100.00;101460.50;5224688;28;20113;-80
2021/01/15 05:55:57;;;;;;;25.08;13.40;;;;;;;1.31;100.00;101464.75;5225183;28;20028;-80
2021/01/15 05:58:27;;;;;;;24.15;13.20;;;;;;;1.24;100.00;101457.75;5225137;28;20052;-80
2021/01/15 06:00:58;;;;;;;28.02;14.05;;;;;;;1.33;100.00;101467.34;5224543;28;20059;-80
2021/01/15 06:03:29;;;;;;;27.80;14.63;;;;;;;1.38;100.00;101469.16;5225283;28;20475;-81
2021/01/15 06:05:59;;;;;;;24.45;14.15;;;;;;;1.31;100.00;101477.63;5227266;28;20055;-81
2021/01/15 06:08:42;;;;;;;24.45;13.30;;;;;;;1.41;100.00;101476.06;5214643;28;20029;-81
2021/01/15 06:11:22;;;;;;;23.50;13.95;;;;;;;1.18;100.00;101478.28;5224449;28;20017;-81
2021/01/15 06:13:52;;;;;;;25.75;13.70;;;;;;;1.16;100.00;101476.50;5232349;28;20028;-82
2021/01/15 06:16:23;;;;;;;25.00;14.40;;;;;;;1.30;100.00;101483.63;5238435;28;20297;-81
2021/01/15 06:19:01;;;;;;;23.73;13.40;;;;;;;1.36;100.00;101478.56;5217075;28;20285;-81
2021/01/15 06:21:35;;;;;;;22.35;13.05;;;;;;;1.45;100.00;101478.72;5237219;28;20116;-82
2021/01/15 06:24:09;;;;;;;22.15;12.73;;;;;;;1.35;100.00;101481.09;5236214;28;20430;-82
2021/01/15 06:26:39;;;;;;;22.75;13.10;;;;;;;1.33;100.00;101481.09;5236719;28;20119;-81
2021/01/15 06:29:11;;;;;;;19.80;11.35;;;;;;;1.32;100.00;101487.09;5223611;28;20496;-82
2021/01/15 06:31:51;;;;;;;26.80;12.40;;;;;;;1.38;100.00;101484.59;5213720;28;20049;-80
2021/01/15 06:34:21;;;;;;;20.65;12.23;;;;;;;1.47;100.00;101486.44;5209957;28;20033;-82
2021/01/15 06:36:54;;;;;;;26.00;12.95;;;;;;;1.42;100.00;101493.25;5216958;28;20025;-83
2021/01/15 06:39:24;;;;;;;20.77;11.80;;;;;;;1.36;100.00;101494.00;5229341;28;20068;-82
2021/01/15 06:42:01;;;;;;;21.83;11.88;;;;;;;1.42;100.00;101490.66;5229752;28;20049;-83
2021/01/15 06:44:31;;;;;;;20.40;11.65;;;;;;;1.34;100.00;101490.56;5228004;28;20029;-83
2021/01/15 06:47:05;;;;;;;20.42;12.65;;;;;;;1.32;100.00;101492.25;5228422;28;20020;-83
2021/01/15 06:49:37;;;;;;;19.92;12.18;;;;;;;1.38;100.00;101491.47;5227625;28;20041;-83
2021/01/15 06:52:13;;;;;;;23.10;11.88;;;;;;;1.37;100.00;101500.91;5230891;28;20031;-83
2021/01/15 06:54:45;;;;;;;22.95;12.10;;;;;;;1.30;100.00;101503.34;5231761;28;20024;-83
2021/01/15 06:57:19;;;;;;;18.42;11.63;;;;;;;1.39;100.00;101499.19;5231344;28;20032;-81
2021/01/15 06:59:56;;;;;;;18.13;11.18;;;;;;;1.37;100.00;101500.91;5231966;28;20513;-80
2021/01/15 07:02:55;;;;;;;23.42;11.90;;;;;;;1.45;100.00;101509.63;5232496;28;20395;-80
2021/01/15 07:05:26;;;;;;;19.75;11.80;;;;;;;1.52;100.00;101513.13;5233199;28;20104;-81
2021/01/15 07:07:59;;;;;;;21.30;11.82;;;;;;;1.55;100.00;101511.47;5232507;28;20025;-80
2021/01/15 07:10:30;;;;;;;21.75;12.30;;;;;;;1.44;100.00;101518.16;5232220;28;20447;-80
2021/01/15 07:13:07;;;;;;;19.55;12.63;;;;;;;1.47;100.00;101513.09;5231217;28;20111;-81
2021/01/15 07:15:42;;;;;;;23.58;12.23;;;;;;;1.55;100.00;101521.78;5213395;28;20033;-81
2021/01/15 07:18:33;;;;;;;21.73;12.15;;;;;;;1.40;100.00;101521.53;5232333;28;20056;-81
2021/01/15 07:21:08;;;;;;;23.08;12.55;;;;;;;1.49;100.00;101520.81;5209715;28;20064;-81
2021/01/15 07:23:54;;;;;;;21.83;12.35;;;;;;;1.47;100.00;101532.81;5233584;28;20053;-81
2021/01/15 07:26:24;;;;;;;21.10;12.80;;;;;;;1.46;100.00;101537.09;5233330;28;20025;-81
2021/01/15 07:28:58;;;;;;;21.10;12.40;;;;;;;1.39;100.00;101529.25;5233208;28;20051;-81
2021/01/15 07:31:29;;;;;;;21.17;11.85;;;;;;;1.38;100.00;101532.66;5235793;28;20427;-80
2021/01/15 07:34:03;;;;;;;24.48;12.90;;;;;;;1.37;100.00;101552.38;5237559;28;20031;-81
2021/01/15 07:36:38;;;;;;;21.75;12.23;;;;;;;1.32;100.00;101551.44;5238362;28;20033;-81
2021/01/15 07:39:14;;;;;;;21.92;12.07;;;;;;;1.30;100.00;101548.00;5237551;28;20029;-81
2021/01/15 07:41:52;;;;;;;23.95;12.38;;;;;;;1.42;100.00;101561.03;5235884;28;20117;-81
2021/01/15 07:44:23;;;;;;;20.75;12.20;;;;;;;1.42;100.00;101566.19;5235013;28;20025;-81
2021/01/15 07:46:58;;;;;;;19.85;12.02;;;;;;;1.51;100.00;101571.53;5236011;28;20074;-81
2021/01/15 07:49:44;;;;;;;25.73;12.75;;;;;;;1.48;100.00;101566.31;5218367;28;20025;-81
2021/01/15 07:52:14;;;;;;;20.95;11.73;;;;;;;1.37;100.00;101567.84;5231335;28;20614;-81
2021/01/15 07:54:44;;;;;;;20.55;11.55;;;;;;;1.29;100.00;101576.28;5235041;28;20036;-81
2021/01/15 07:57:16;;;;;;;20.77;11.70;;;;;;;1.21;100.00;101577.84;5235850;28;20129;-81
2021/01/15 07:59:46;;;;;;;22.60;12.23;;;;;;;1.20;100.00;101573.56;5235460;28;20487;-81
2021/01/15 08:02:18;;;;;;;22.33;12.15;;;;;;;1.24;100.00;101576.19;5235067;28;20071;-80
2021/01/15 08:04:49;;;;;;;21.77;11.82;;;;;;;1.25;100.00;101572.75;5234564;28;20383;-81
2021/01/15 08:07:25;;;;;;;19.63;11.55;;;;;;;1.24;100.00;101586.47;5235394;28;20029;-80
2021/01/15 08:09:55;;;;;;;21.05;11.35;;;;;;;1.15;100.00;101581.19;5235897;28;20111;-80
2021/01/15 08:12:35;;;;;;;19.15;11.02;;;;;;;1.18;100.00;101578.66;5235798;28;20049;-81
2021/01/15 08:15:27;;;;;;;20.70;10.88;;;;;;;1.09;100.00;101581.06;5216756;28;20087;-81
2021/01/15 08:18:02;;;;;;;21.92;11.77;;;;;;;1.10;100.00;101580.22;5223648;28;20653;-81
2021/01/15 08:20:33;;;;;;;21.77;11.68;;;;;;;1.15;100.00;101588.91;5234490;28;20538;-80
2021/01/15 08:23:03;;;;;;;25.10;12.05;;;;;;;1.26;100.00;101584.78;5233318;28;20028;-81
2021/01/15 08:25:33;;;;;;;20.50;11.68;;;;;;;1.29;100.00;101589.13;5233823;28;20531;-80
2021/01/15 08:28:06;;;;;;;18.70;11.05;;;;;;;1.25;100.00;101588.22;5233208;28;20056;-80
2021/01/15 08:30:36;;;;;;;18.55;11.70;;;;;;;1.40;100.00;101588.47;5232911;28;20041;-80
2021/01/15 08:33:06;;;;;;;18.98;11.65;;;;;;;1.23;100.00;101592.47;5233323;28;20096;-80
2021/01/15 08:35:37;;;;;;;18.73;11.27;;;;;;;1.38;100.00;101595.31;5215472;28;20043;-81
2021/01/15 08:38:07;;;;;;;18.42;11.25;;;;;;;1.19;100.00;101602.66;5232428;28;20028;-81
2021/01/15 08:40:41;;;;;;;18.98;10.98;;;;;;;1.21;100.00;101596.72;5233747;28;20083;-80
2021/01/15 08:43:11;;;;;;;19.63;10.30;;;;;;;1.13;100.00;101602.56;5233343;28;20017;-81
2021/01/15 08:45:41;;;;;;;21.45;11.07;;;;;;;1.13;100.00;101600.88;5233254;28;20084;-81
2021/01/15 08:48:13;;;;;;;20.98;11.00;;;;;;;1.06;100.00;101611.88;5237815;28;20033;-81
2021/01/15 08:50:44;;;;;;;19.85;11.43;;;;;;;1.12;100.00;101604.28;5217163;28;20300;-81
2021/01/15 08:53:17;;;;;;;22.10;11.90;;;;;;;1.28;100.00;101608.00;5234555;28;20259;-80
2021/01/15 08:55:50;;;;;;;18.60;11.45;;;;;;;1.31;100.00;101603.78;5236836;28;20086;-81
2021/01/15 08:58:20;;;;;;;20.05;12.18;;;;;;;1.36;100.00;101616.72;5236638;28;20070;-81
2021/01/15 09:00:51;;;;;;;19.52;10.82;;;;;;;1.30;100.00;101607.19;5234867;28;20493;-80
2021/01/15 09:03:22;;;;;;;19.38;11.70;;;;;;;1.26;100.00;101615.69;5234801;28;20495;-81
2021/01/15 09:05:53;;;;;;;18.63;10.90;;;;;;;1.25;100.00;101625.97;5234918;28;20530;-81
2021/01/15 09:08:23;;;;;;;21.33;11.93;;;;;;;1.29;100.00;101625.19;5235478;28;20041;-81
2021/01/15 09:10:54;;;;;;;25.65;11.75;;;;;;;1.29;100.00;101632.91;5235510;28;20028;-81
2021/01/15 09:13:24;;;;;;;22.42;12.13;;;;;;;1.08;100.00;101630.78;5234919;28;20021;-81
2021/01/15 09:15:56;;;;;;;21.23;12.80;;;;;;;1.22;100.00;101639.66;5235855;28;20095;-81
2021/01/15 09:18:27;;;;;;;74.30;32.53;;;;;;;1.26;100.00;101633.72;5236679;28;20031;-81
2021/01/15 09:20:58;;;;;;;65.28;30.05;;;;;;;1.20;100.00;101631.03;5235038;28;20021;-81
2021/01/15 09:23:28;;;;;;;25.08;13.60;;;;;;;1.20;100.00;101636.19;5234936;28;20092;-81
2021/01/15 09:25:58;;;;;;;24.63;13.30;;;;;;;1.21;100.00;101637.91;5235734;28;20048;-81
2021/01/15 09:28:28;;;;;;;27.30;14.50;;;;;;;1.28;100.00;101647.50;5236036;28;20049;-81
2021/01/15 09:30:59;;;;;;;22.33;13.48;;;;;;;1.37;100.00;101650.22;5235557;28;20045;-81
2021/01/15 09:33:30;;;;;;;23.80;12.65;;;;;;;1.30;100.00;101657.81;5235504;28;20025;-81
2021/01/15 09:36:00;;;;;;;25.58;14.00;;;;;;;1.23;100.00;101667.13;5236816;28;20395;-80
2021/01/15 09:38:30;;;;;;;29.88;15.75;;;;;;;1.18;100.00;101668.75;5235118;28;20035;-81
2021/01/15 09:41:07;;;;;;;23.40;13.35;;;;;;;1.29;100.00;101664.69;5235681;28;20021;-81
2021/01/15 09:43:37;;;;;;;23.52;13.13;;;;;;;1.41;100.00;101659.75;5234181;28;20032;-81
2021/01/15 09:46:17;;;;;;;24.08;14.13;;;;;;;1.53;100.00;101667.69;5233133;28;20025;-81
2021/01/15 09:48:48;;;;;;;23.77;13.98;;;;;;;1.39;100.00;101666.56;5234539;28;20025;-81
2021/01/15 09:51:25;;;;;;;25.08;15.10;;;;;;;1.46;100.00;101676.16;5235944;28;20210;-80
2021/01/15 09:53:56;;;;;;;25.27;14.00;;;;;;;1.31;100.00;101662.13;5234857;28;20028;-80
2021/01/15 09:56:31;;;;;;;22.17;12.30;;;;;;;1.14;100.00;101674.69;5217659;28;20025;-81
2021/01/15 09:59:02;;;;;;;25.02;13.75;;;;;;;1.36;100.00;101671.66;5236017;28;20049;-81
2021/01/15 10:01:33;;;;;;;33.78;20.20;;;;;;;1.32;100.00;101669.88;5236363;28;20036;-81
2021/01/15 10:04:03;;;;;;;31.17;17.60;;;;;;;1.52;100.00;101671.13;5234627;28;20036;-81
2021/01/15 10:06:41;;;;;;;34.55;19.55;;;;;;;1.48;100.00;101678.75;5234065;28;20052;-81
2021/01/15 10:09:13;;;;;;;26.80;14.90;;;;;;;1.43;100.00;101673.50;5235162;28;20112;-81
2021/01/15 10:11:45;;;;;;;26.13;15.68;;;;;;;1.54;100.00;101673.72;5235402;28;20550;-81
2021/01/15 10:14:17;;;;;;;20.35;12.10;;;;;;;1.45;100.00;101668.41;5221155;28;20021;-81
2021/01/15 10:16:52;;;;;;;19.10;11.57;;;;;;;1.52;100.00;101667.66;5231932;28;20025;-80
2021/01/15 10:19:22;;;;;;;22.58;13.15;;;;;;;1.57;100.00;101669.47;5228569;28;20032;-81
2021/01/15 10:21:52;;;;;;;24.85;12.82;;;;;;;1.57;100.00;101677.22;5227300;28;20479;-81
2021/01/15 10:24:22;;;;;;;20.98;12.07;;;;;;;1.67;100.00;101668.81;5230154;28;20059;-80
2021/01/15 10:26:53;;;;;;;20.63;11.43;;;;;;;1.54;100.00;101664.28;5228474;28;20040;-81
2021/01/15 10:29:23;;;;;;;19.33;11.93;;;;;;;1.59;100.00;101667.78;5228835;28;20025;-80
2021/01/15 10:31:56;;;;;;;16.65;10.45;;;;;;;1.71;100.00;101665.44;5227917;28;20036;-80
2021/01/15 10:34:27;;;;;;;22.88;13.48;;;;;;;1.77;99.57;101667.25;5228344;28;20412;-80
2021/01/15 10:36:57;;;;;;;26.48;14.52;;;;;;;1.64;99.79;101667.88;5225925;28;20024;-80
2021/01/15 10:39:28;;;;;;;29.85;16.48;;;;;;;1.78;100.00;101669.84;5227491;28;20032;-80
2021/01/15 10:41:58;;;;;;;20.30;12.05;;;;;;;1.81;99.53;101678.50;5227052;28;20017;-80
2021/01/15 10:44:29;;;;;;;22.23;11.35;;;;;;;1.63;98.84;101671.31;5228173;28;20094;-80
2021/01/15 10:47:02;;;;;;;17.58;10.15;;;;;;;1.66;98.10;101674.81;5228525;28;20029;-81
2021/01/15 10:49:33;;;;;;;17.25;9.82;;;;;;;1.48;98.27;101666.75;5229730;28;20044;-82
2021/01/15 10:52:06;;;;;;;14.55;8.77;;;;;;;1.51;97.30;101671.06;5228652;28;20033;-83
2021/01/15 10:54:36;;;;;;;14.93;9.07;;;;;;;1.63;96.42;101677.34;5228128;28;20029;-81
2021/01/15 10:57:07;;;;;;;18.55;10.07;;;;;;;1.71;97.33;101678.31;5229183;28;20112;-81
2021/01/15 10:59:37;;;;;;;20.63;9.98;;;;;;;1.83;96.88;101673.41;5228764;28;20503;-81
2021/01/15 11:02:07;;;;;;;19.10;11.63;;;;;;;1.82;96.09;101671.66;5228475;28;20031;-81
2021/01/15 11:04:38;;;;;;;15.18;9.45;;;;;;;1.80;96.17;101681.09;5209450;28;20491;-81
2021/01/15 11:07:08;;;;;;;17.45;10.15;;;;;;;1.84;97.32;101675.97;5226876;28;20020;-81
2021/01/15 11:09:38;;;;;;;16.10;8.70;;;;;;;1.85;95.80;101680.28;5226925;28;20045;-82
2021/01/15 11:12:09;;;;;;;14.65;7.63;;;;;;;1.59;94.04;101678.09;5227212;28;20021;-81
2021/01/15 11:14:39;;;;;;;15.38;8.27;;;;;;;1.58;94.50;101681.53;5227170;28;20016;-81
2021/01/15 11:17:09;;;;;;;17.17;9.32;;;;;;;1.75;95.38;101680.09;5226873;28;20021;-81
2021/01/15 11:19:39;;;;;;;14.88;9.52;;;;;;;1.69;94.30;101674.84;5226657;28;20040;-81
2021/01/15 11:22:10;;;;;;;17.48;9.50;;;;;;;1.79;93.62;101679.34;5226686;28;20055;-82
2021/01/15 11:24:40;;;;;;;12.52;6.93;;;;;;;1.47;92.79;101672.75;5230042;28;20029;-81
2021/01/15 11:27:10;;;;;;;13.20;7.50;;;;;;;1.46;93.39;101678.75;5229854;28;20056;-82
2021/01/15 11:29:41;;;;;;;14.50;7.72;;;;;;;1.43;93.69;101680.38;5228633;28;20031;-81
2021/01/15 11:32:11;;;;;;;18.45;9.25;;;;;;;1.51;94.82;101678.81;5229173;28;20028;-81
2021/01/15 11:34:41;;;;;;;17.10;10.52;;;;;;;1.54;93.83;101677.16;5226714;28;20029;-82
2021/01/15 11:37:11;;;;;;;15.00;8.10;;;;;;;1.59;93.51;101674.69;5227256;28;20395;-81
2021/01/15 11:39:42;;;;;;;13.80;8.95;;;;;;;1.65;93.85;101675.66;5227058;28;20025;-81
2021/01/15 11:42:12;;;;;;;12.05;7.90;;;;;;;1.66;93.24;101674.81;5230467;28;20048;-81